sensor_id;sensor_type;location;lat;lon;timestamp;P1;durP1;ratioP1;P2;durP2;ratioP2
5831;SDS011;50943;51.448;7.646;2022-09-17T00:01:15;11.20;;;3.27;;
5831;SDS011;50943;51.448;7.646;2022-09-17T00:03:42;19.47;;;5.30;;
5831;SDS011;50943;51.448;7.646;2022-09-17T00:06:11;19.07;;;4.00;;
5831;SDS011;50943;51.448;7.646;2022-09-17T00:08:38;12.17;;;5.37;;
5831;SDS011;50943;51.448;7.646;2022-09-17T00:11:05;10.30;;;3.73;;
5831;SDS011;50943;51.448;7.646;2022-09-17T00:13:32;13.50;;;4.40;;
5831;SDS011;50943;51.448;7.646;2022-09-17T00:15:59;13.37;;;4.67;;
5831;SDS011;50943;51.448;7.646;2022-09-17T00:18:26;18.53;;;5.27;;
5831;SDS011;50943;51.448;7.646;2022-09-17T00:20:53;16.33;;;5.00;;
5831;SDS011;50943;51.448;7.646;2022-09-17T00:23:20;13.00;;;4.50;;
5831;SDS011;50943;51.448;7.646;2022-09-17T00:25:47;15.20;;;4.87;;
5831;SDS011;50943;51.448;7.646;2022-09-17T00:28:14;13.60;;;4.83;;
5831;SDS011;50943;51.448;7.646;2022-09-17T00:30:40;9.90;;;4.97;;
5831;SDS011;50943;51.448;7.646;2022-09-17T00:33:08;13.20;;;4.90;;
5831;SDS011;50943;51.448;7.646;2022-09-17T00:35:36;19.13;;;5.17;;
5831;SDS011;50943;51.448;7.646;2022-09-17T00:38:03;15.47;;;5.87;;
5831;SDS011;50943;51.448;7.646;2022-09-17T00:40:31;19.63;;;6.83;;
5831;SDS011;50943;51.448;7.646;2022-09-17T00:42:57;15.70;;;6.20;;
5831;SDS011;50943;51.448;7.646;2022-09-17T00:45:24;17.77;;;6.83;;
5831;SDS011;50943;51.448;7.646;2022-09-17T00:47:52;20.20;;;8.60;;
5831;SDS011;50943;51.448;7.646;2022-09-17T00:50:23;17.33;;;8.73;;
5831;SDS011;50943;51.448;7.646;2022-09-17T00:52:52;26.57;;;8.70;;
5831;SDS011;50943;51.448;7.646;2022-09-17T00:55:20;26.23;;;10.17;;
5831;SDS011;50943;51.448;7.646;2022-09-17T00:57:50;17.13;;;9.57;;
5831;SDS011;50943;51.448;7.646;2022-09-17T01:00:17;28.27;;;11.57;;
5831;SDS011;50943;51.448;7.646;2022-09-17T01:02:44;25.63;;;12.33;;
5831;SDS011;50943;51.448;7.646;2022-09-17T01:05:11;32.40;;;12.70;;
5831;SDS011;50943;51.448;7.646;2022-09-17T01:07:43;29.73;;;12.50;;
5831;SDS011;50943;51.448;7.646;2022-09-17T01:10:18;37.37;;;14.80;;
5831;SDS011;50943;51.448;7.646;2022-09-17T01:12:51;19.73;;;11.80;;
5831;SDS011;50943;51.448;7.646;2022-09-17T01:15:21;27.37;;;13.40;;
5831;SDS011;50943;51.448;7.646;2022-09-17T01:17:56;31.13;;;14.67;;
5831;SDS011;50943;51.448;7.646;2022-09-17T01:20:37;31.10;;;15.20;;
5831;SDS011;50943;51.448;7.646;2022-09-17T01:23:12;27.40;;;15.53;;
5831;SDS011;50943;51.448;7.646;2022-09-17T01:25:46;36.30;;;16.80;;
5831;SDS011;50943;51.448;7.646;2022-09-17T01:28:21;38.40;;;16.20;;
5831;SDS011;50943;51.448;7.646;2022-09-17T01:33:36;27.37;;;14.03;;
5831;SDS011;50943;51.448;7.646;2022-09-17T01:36:08;28.03;;;13.50;;
5831;SDS011;50943;51.448;7.646;2022-09-17T01:38:37;30.10;;;12.77;;
5831;SDS011;50943;51.448;7.646;2022-09-17T01:41:08;22.10;;;12.20;;
5831;SDS011;50943;51.448;7.646;2022-09-17T01:43:41;32.23;;;13.10;;
5831;SDS011;50943;51.448;7.646;2022-09-17T01:46:11;26.83;;;10.40;;
5831;SDS011;50943;51.448;7.646;2022-09-17T01:48:41;21.90;;;10.33;;
5831;SDS011;50943;51.448;7.646;2022-09-17T01:51:09;18.43;;;9.30;;
5831;SDS011;50943;51.448;7.646;2022-09-17T01:53:37;29.83;;;9.83;;
5831;SDS011;50943;51.448;7.646;2022-09-17T01:56:04;22.77;;;9.30;;
5831;SDS011;50943;51.448;7.646;2022-09-17T01:58:32;26.47;;;9.50;;
5831;SDS011;50943;51.448;7.646;2022-09-17T02:01:01;22.57;;;11.10;;
5831;SDS011;50943;51.448;7.646;2022-09-17T02:03:30;21.23;;;11.30;;
5831;SDS011;50943;51.448;7.646;2022-09-17T02:06:02;25.53;;;11.77;;
5831;SDS011;50943;51.448;7.646;2022-09-17T02:08:31;20.97;;;11.50;;
5831;SDS011;50943;51.448;7.646;2022-09-17T02:11:02;25.33;;;11.83;;
5831;SDS011;50943;51.448;7.646;2022-09-17T02:13:32;28.60;;;13.20;;
5831;SDS011;50943;51.448;7.646;2022-09-17T02:16:01;26.53;;;14.40;;
5831;SDS011;50943;51.448;7.646;2022-09-17T02:18:29;35.90;;;15.70;;
5831;SDS011;50943;51.448;7.646;2022-09-17T02:21:03;41.93;;;18.40;;
5831;SDS011;50943;51.448;7.646;2022-09-17T02:23:32;38.47;;;15.80;;
5831;SDS011;50943;51.448;7.646;2022-09-17T02:26:01;32.60;;;17.40;;
5831;SDS011;50943;51.448;7.646;2022-09-17T02:28:31;37.73;;;18.60;;
5831;SDS011;50943;51.448;7.646;2022-09-17T02:31:01;48.37;;;19.40;;
5831;SDS011;50943;51.448;7.646;2022-09-17T02:33:29;43.10;;;19.60;;
5831;SDS011;50943;51.448;7.646;2022-09-17T02:35:55;50.13;;;22.13;;
5831;SDS011;50943;51.448;7.646;2022-09-17T02:38:25;39.33;;;19.67;;
5831;SDS011;50943;51.448;7.646;2022-09-17T02:40:53;41.37;;;20.50;;
5831;SDS011;50943;51.448;7.646;2022-09-17T02:43:25;46.17;;;21.10;;
5831;SDS011;50943;51.448;7.646;2022-09-17T02:45:57;48.10;;;20.00;;
5831;SDS011;50943;51.448;7.646;2022-09-17T02:48:37;40.17;;;19.40;;
5831;SDS011;50943;51.448;7.646;2022-09-17T02:51:10;47.70;;;18.77;;
5831;SDS011;50943;51.448;7.646;2022-09-17T02:53:42;58.43;;;21.70;;
5831;SDS011;50943;51.448;7.646;2022-09-17T02:56:12;57.90;;;19.80;;
5831;SDS011;50943;51.448;7.646;2022-09-17T02:58:43;44.17;;;18.90;;
5831;SDS011;50943;51.448;7.646;2022-09-17T03:01:11;42.97;;;17.80;;
5831;SDS011;50943;51.448;7.646;2022-09-17T03:03:40;42.70;;;17.90;;
5831;SDS011;50943;51.448;7.646;2022-09-17T03:06:08;47.50;;;17.10;;
5831;SDS011;50943;51.448;7.646;2022-09-17T03:08:36;44.13;;;17.20;;
5831;SDS011;50943;51.448;7.646;2022-09-17T03:11:05;45.67;;;17.70;;
5831;SDS011;50943;51.448;7.646;2022-09-17T03:13:33;37.30;;;16.13;;
5831;SDS011;50943;51.448;7.646;2022-09-17T03:15:59;37.87;;;15.10;;
5831;SDS011;50943;51.448;7.646;2022-09-17T03:18:26;42.40;;;15.50;;
5831;SDS011;50943;51.448;7.646;2022-09-17T03:20:52;34.40;;;15.00;;
5831;SDS011;50943;51.448;7.646;2022-09-17T03:23:19;31.33;;;13.77;;
5831;SDS011;50943;51.448;7.646;2022-09-17T03:25:45;38.60;;;13.90;;
5831;SDS011;50943;51.448;7.646;2022-09-17T03:28:14;36.93;;;13.30;;
5831;SDS011;50943;51.448;7.646;2022-09-17T03:30:41;35.67;;;11.60;;
5831;SDS011;50943;51.448;7.646;2022-09-17T03:33:08;33.07;;;12.07;;
5831;SDS011;50943;51.448;7.646;2022-09-17T03:35:34;26.53;;;9.87;;
5831;SDS011;50943;51.448;7.646;2022-09-17T03:38:01;34.93;;;10.20;;
5831;SDS011;50943;51.448;7.646;2022-09-17T03:40:27;47.10;;;9.93;;
5831;SDS011;50943;51.448;7.646;2022-09-17T03:42:54;29.73;;;9.00;;
5831;SDS011;50943;51.448;7.646;2022-09-17T03:45:22;28.20;;;7.80;;
5831;SDS011;50943;51.448;7.646;2022-09-17T03:47:48;29.13;;;7.57;;
5831;SDS011;50943;51.448;7.646;2022-09-17T03:50:15;17.70;;;6.37;;
5831;SDS011;50943;51.448;7.646;2022-09-17T03:52:41;34.57;;;6.20;;
5831;SDS011;50943;51.448;7.646;2022-09-17T03:55:08;29.90;;;6.43;;
5831;SDS011;50943;51.448;7.646;2022-09-17T03:57:35;19.10;;;5.93;;
5831;SDS011;50943;51.448;7.646;2022-09-17T04:00:02;24.27;;;6.20;;
5831;SDS011;50943;51.448;7.646;2022-09-17T04:02:30;19.70;;;5.50;;
5831;SDS011;50943;51.448;7.646;2022-09-17T04:04:57;27.10;;;6.70;;
5831;SDS011;50943;51.448;7.646;2022-09-17T04:07:23;30.43;;;6.00;;
5831;SDS011;50943;51.448;7.646;2022-09-17T04:09:50;24.50;;;5.43;;
5831;SDS011;50943;51.448;7.646;2022-09-17T04:12:16;27.73;;;6.27;;
5831;SDS011;50943;51.448;7.646;2022-09-17T04:14:43;25.67;;;5.90;;
5831;SDS011;50943;51.448;7.646;2022-09-17T04:17:09;25.33;;;6.10;;
5831;SDS011;50943;51.448;7.646;2022-09-17T04:19:38;20.50;;;5.33;;
5831;SDS011;50943;51.448;7.646;2022-09-17T04:22:04;24.50;;;5.97;;
5831;SDS011;50943;51.448;7.646;2022-09-17T04:24:31;22.40;;;5.90;;
5831;SDS011;50943;51.448;7.646;2022-09-17T04:26:57;19.27;;;5.50;;
5831;SDS011;50943;51.448;7.646;2022-09-17T04:29:24;17.70;;;6.00;;
5831;SDS011;50943;51.448;7.646;2022-09-17T04:31:50;14.13;;;4.67;;
5831;SDS011;50943;51.448;7.646;2022-09-17T04:34:17;15.30;;;4.90;;
5831;SDS011;50943;51.448;7.646;2022-09-17T04:36:45;26.63;;;5.40;;
5831;SDS011;50943;51.448;7.646;2022-09-17T04:39:12;18.87;;;5.00;;
5831;SDS011;50943;51.448;7.646;2022-09-17T04:41:38;24.73;;;5.33;;
5831;SDS011;50943;51.448;7.646;2022-09-17T04:44:05;17.97;;;4.90;;
5831;SDS011;50943;51.448;7.646;2022-09-17T04:46:31;26.67;;;5.20;;
5831;SDS011;50943;51.448;7.646;2022-09-17T04:48:57;25.30;;;4.83;;
5831;SDS011;50943;51.448;7.646;2022-09-17T04:51:24;17.47;;;4.30;;
5831;SDS011;50943;51.448;7.646;2022-09-17T04:53:52;29.50;;;5.50;;
5831;SDS011;50943;51.448;7.646;2022-09-17T04:56:18;16.90;;;4.13;;
5831;SDS011;50943;51.448;7.646;2022-09-17T04:58:45;18.97;;;4.33;;
5831;SDS011;50943;51.448;7.646;2022-09-17T05:01:12;15.27;;;3.77;;
5831;SDS011;50943;51.448;7.646;2022-09-17T05:03:39;27.80;;;3.60;;
5831;SDS011;50943;51.448;7.646;2022-09-17T05:06:05;27.70;;;4.20;;
5831;SDS011;50943;51.448;7.646;2022-09-17T05:08:32;19.47;;;6.23;;
5831;SDS011;50943;51.448;7.646;2022-09-17T05:10:59;21.37;;;4.00;;
5831;SDS011;50943;51.448;7.646;2022-09-17T05:13:26;29.73;;;4.20;;
5831;SDS011;50943;51.448;7.646;2022-09-17T05:15:53;13.07;;;3.57;;
5831;SDS011;50943;51.448;7.646;2022-09-17T05:18:20;19.97;;;3.20;;
5831;SDS011;50943;51.448;7.646;2022-09-17T05:20:46;20.43;;;3.70;;
5831;SDS011;50943;51.448;7.646;2022-09-17T05:23:13;17.77;;;3.67;;
5831;SDS011;50943;51.448;7.646;2022-09-17T05:25:39;16.10;;;3.40;;
5831;SDS011;50943;51.448;7.646;2022-09-17T05:28:07;24.17;;;4.00;;
5831;SDS011;50943;51.448;7.646;2022-09-17T05:30:34;14.40;;;3.50;;
5831;SDS011;50943;51.448;7.646;2022-09-17T05:33:01;21.97;;;3.30;;
5831;SDS011;50943;51.448;7.646;2022-09-17T05:35:28;27.47;;;3.73;;
5831;SDS011;50943;51.448;7.646;2022-09-17T05:37:56;15.47;;;3.20;;
5831;SDS011;50943;51.448;7.646;2022-09-17T05:40:22;15.97;;;3.43;;
5831;SDS011;50943;51.448;7.646;2022-09-17T05:42:48;20.27;;;3.23;;
5831;SDS011;50943;51.448;7.646;2022-09-17T05:45:16;26.23;;;3.17;;
5831;SDS011;50943;51.448;7.646;2022-09-17T05:47:43;14.30;;;2.80;;
5831;SDS011;50943;51.448;7.646;2022-09-17T05:50:09;16.67;;;2.87;;
5831;SDS011;50943;51.448;7.646;2022-09-17T05:52:35;19.50;;;3.00;;
5831;SDS011;50943;51.448;7.646;2022-09-17T05:55:02;15.27;;;3.03;;
5831;SDS011;50943;51.448;7.646;2022-09-17T05:57:29;15.70;;;2.73;;
5831;SDS011;50943;51.448;7.646;2022-09-17T05:59:55;19.10;;;2.80;;
5831;SDS011;50943;51.448;7.646;2022-09-17T06:02:23;16.83;;;2.83;;
5831;SDS011;50943;51.448;7.646;2022-09-17T06:04:50;18.53;;;3.13;;
5831;SDS011;50943;51.448;7.646;2022-09-17T06:07:16;18.10;;;3.00;;
5831;SDS011;50943;51.448;7.646;2022-09-17T06:09:43;24.37;;;3.67;;
5831;SDS011;50943;51.448;7.646;2022-09-17T06:12:09;16.70;;;3.17;;
5831;SDS011;50943;51.448;7.646;2022-09-17T06:14:35;16.30;;;2.60;;
5831;SDS011;50943;51.448;7.646;2022-09-17T06:17:02;14.47;;;2.60;;
5831;SDS011;50943;51.448;7.646;2022-09-17T06:19:30;13.93;;;2.77;;
5831;SDS011;50943;51.448;7.646;2022-09-17T06:21:56;15.40;;;3.00;;
5831;SDS011;50943;51.448;7.646;2022-09-17T06:24:23;13.90;;;2.43;;
5831;SDS011;50943;51.448;7.646;2022-09-17T06:26:50;11.40;;;2.23;;
5831;SDS011;50943;51.448;7.646;2022-09-17T06:29:17;17.53;;;2.37;;
5831;SDS011;50943;51.448;7.646;2022-09-17T06:31:43;19.33;;;3.90;;
5831;SDS011;50943;51.448;7.646;2022-09-17T06:34:10;10.33;;;2.37;;
5831;SDS011;50943;51.448;7.646;2022-09-17T06:36:38;8.97;;;1.93;;
5831;SDS011;50943;51.448;7.646;2022-09-17T06:39:04;14.87;;;2.07;;
5831;SDS011;50943;51.448;7.646;2022-09-17T06:41:30;7.83;;;2.10;;
5831;SDS011;50943;51.448;7.646;2022-09-17T06:43:57;12.40;;;2.73;;
5831;SDS011;50943;51.448;7.646;2022-09-17T06:46:24;18.63;;;2.33;;
5831;SDS011;50943;51.448;7.646;2022-09-17T06:48:51;13.50;;;2.70;;
5831;SDS011;50943;51.448;7.646;2022-09-17T06:51:17;12.87;;;2.53;;
5831;SDS011;50943;51.448;7.646;2022-09-17T06:53:45;7.90;;;2.40;;
5831;SDS011;50943;51.448;7.646;2022-09-17T06:56:12;12.47;;;2.50;;
5831;SDS011;50943;51.448;7.646;2022-09-17T06:58:39;10.17;;;2.17;;
5831;SDS011;50943;51.448;7.646;2022-09-17T07:01:07;4.50;;;1.70;;
5831;SDS011;50943;51.448;7.646;2022-09-17T07:03:34;9.90;;;1.97;;
5831;SDS011;50943;51.448;7.646;2022-09-17T07:06:01;9.83;;;2.80;;
5831;SDS011;50943;51.448;7.646;2022-09-17T07:08:28;11.53;;;2.63;;
5831;SDS011;50943;51.448;7.646;2022-09-17T07:10:56;11.77;;;2.70;;
5831;SDS011;50943;51.448;7.646;2022-09-17T07:13:23;13.77;;;2.50;;
5831;SDS011;50943;51.448;7.646;2022-09-17T07:15:53;12.63;;;1.83;;
5831;SDS011;50943;51.448;7.646;2022-09-17T07:18:19;17.57;;;2.73;;
5831;SDS011;50943;51.448;7.646;2022-09-17T07:20:51;7.40;;;2.13;;
5831;SDS011;50943;51.448;7.646;2022-09-17T07:23:18;8.10;;;2.20;;
5831;SDS011;50943;51.448;7.646;2022-09-17T07:25:47;8.10;;;2.03;;
5831;SDS011;50943;51.448;7.646;2022-09-17T07:28:17;9.70;;;2.03;;
5831;SDS011;50943;51.448;7.646;2022-09-17T07:30:43;7.40;;;1.90;;
5831;SDS011;50943;51.448;7.646;2022-09-17T07:33:09;11.00;;;1.87;;
5831;SDS011;50943;51.448;7.646;2022-09-17T07:35:36;11.43;;;2.10;;
5831;SDS011;50943;51.448;7.646;2022-09-17T07:38:02;19.30;;;2.80;;
5831;SDS011;50943;51.448;7.646;2022-09-17T07:40:29;19.80;;;2.20;;
5831;SDS011;50943;51.448;7.646;2022-09-17T07:42:55;17.27;;;3.50;;
5831;SDS011;50943;51.448;7.646;2022-09-17T07:45:23;8.80;;;2.50;;
5831;SDS011;50943;51.448;7.646;2022-09-17T07:47:49;12.50;;;2.00;;
5831;SDS011;50943;51.448;7.646;2022-09-17T07:50:16;7.47;;;2.40;;
5831;SDS011;50943;51.448;7.646;2022-09-17T07:52:44;10.83;;;2.80;;
5831;SDS011;50943;51.448;7.646;2022-09-17T07:55:11;7.83;;;2.67;;
5831;SDS011;50943;51.448;7.646;2022-09-17T07:57:37;9.20;;;2.87;;
5831;SDS011;50943;51.448;7.646;2022-09-17T08:00:04;11.00;;;2.17;;
5831;SDS011;50943;51.448;7.646;2022-09-17T08:05:00;11.00;;;2.63;;
5831;SDS011;50943;51.448;7.646;2022-09-17T08:07:27;5.77;;;1.77;;
5831;SDS011;50943;51.448;7.646;2022-09-17T08:09:53;9.10;;;1.90;;
5831;SDS011;50943;51.448;7.646;2022-09-17T08:12:20;7.60;;;1.70;;
5831;SDS011;50943;51.448;7.646;2022-09-17T08:14:47;4.70;;;1.70;;
5831;SDS011;50943;51.448;7.646;2022-09-17T08:17:13;10.10;;;1.73;;
5831;SDS011;50943;51.448;7.646;2022-09-17T08:19:39;8.83;;;2.00;;
5831;SDS011;50943;51.448;7.646;2022-09-17T08:22:08;6.37;;;1.90;;
5831;SDS011;50943;51.448;7.646;2022-09-17T08:24:34;8.27;;;1.57;;
5831;SDS011;50943;51.448;7.646;2022-09-17T08:27:01;11.77;;;1.70;;
5831;SDS011;50943;51.448;7.646;2022-09-17T08:29:27;9.00;;;1.90;;
5831;SDS011;50943;51.448;7.646;2022-09-17T08:31:53;10.60;;;2.67;;
5831;SDS011;50943;51.448;7.646;2022-09-17T08:34:20;8.47;;;1.80;;
5831;SDS011;50943;51.448;7.646;2022-09-17T08:36:46;6.27;;;1.60;;
5831;SDS011;50943;51.448;7.646;2022-09-17T08:39:14;12.20;;;2.17;;
5831;SDS011;50943;51.448;7.646;2022-09-17T08:41:48;8.83;;;1.70;;
5831;SDS011;50943;51.448;7.646;2022-09-17T08:44:18;15.33;;;2.37;;
5831;SDS011;50943;51.448;7.646;2022-09-17T08:46:47;11.13;;;1.97;;
5831;SDS011;50943;51.448;7.646;2022-09-17T08:49:17;4.30;;;1.50;;
5831;SDS011;50943;51.448;7.646;2022-09-17T08:51:47;6.80;;;1.70;;
5831;SDS011;50943;51.448;7.646;2022-09-17T08:54:20;8.03;;;1.80;;
5831;SDS011;50943;51.448;7.646;2022-09-17T08:56:50;7.33;;;1.70;;
5831;SDS011;50943;51.448;7.646;2022-09-17T08:59:21;12.17;;;2.43;;
5831;SDS011;50943;51.448;7.646;2022-09-17T09:01:54;8.90;;;2.23;;
5831;SDS011;50943;51.448;7.646;2022-09-17T09:04:33;8.20;;;1.80;;
5831;SDS011;50943;51.448;7.646;2022-09-17T09:07:02;9.60;;;1.90;;
5831;SDS011;50943;51.448;7.646;2022-09-17T09:09:32;5.77;;;1.53;;
5831;SDS011;50943;51.448;7.646;2022-09-17T09:12:01;10.50;;;2.27;;
5831;SDS011;50943;51.448;7.646;2022-09-17T09:14:29;6.53;;;1.40;;
5831;SDS011;50943;51.448;7.646;2022-09-17T09:16:56;7.67;;;1.80;;
5831;SDS011;50943;51.448;7.646;2022-09-17T09:19:24;8.07;;;1.40;;
5831;SDS011;50943;51.448;7.646;2022-09-17T09:21:59;8.63;;;1.57;;
5831;SDS011;50943;51.448;7.646;2022-09-17T09:24:29;8.40;;;1.67;;
5831;SDS011;50943;51.448;7.646;2022-09-17T09:27:02;7.07;;;1.40;;
5831;SDS011;50943;51.448;7.646;2022-09-17T09:29:34;10.83;;;1.50;;
5831;SDS011;50943;51.448;7.646;2022-09-17T09:32:11;5.23;;;1.23;;
5831;SDS011;50943;51.448;7.646;2022-09-17T09:34:40;6.93;;;1.93;;
5831;SDS011;50943;51.448;7.646;2022-09-17T09:37:10;4.67;;;1.07;;
5831;SDS011;50943;51.448;7.646;2022-09-17T09:39:38;4.10;;;1.30;;
5831;SDS011;50943;51.448;7.646;2022-09-17T09:42:10;8.93;;;1.30;;
5831;SDS011;50943;51.448;7.646;2022-09-17T09:44:39;5.67;;;1.30;;
5831;SDS011;50943;51.448;7.646;2022-09-17T09:47:15;4.80;;;1.67;;
5831;SDS011;50943;51.448;7.646;2022-09-17T09:49:48;4.60;;;1.13;;
5831;SDS011;50943;51.448;7.646;2022-09-17T09:52:22;5.07;;;1.33;;
5831;SDS011;50943;51.448;7.646;2022-09-17T09:54:59;5.43;;;1.13;;
5831;SDS011;50943;51.448;7.646;2022-09-17T09:57:36;5.17;;;1.17;;
5831;SDS011;50943;51.448;7.646;2022-09-17T10:02:46;8.07;;;1.40;;
5831;SDS011;50943;51.448;7.646;2022-09-17T10:05:14;4.23;;;1.30;;
5831;SDS011;50943;51.448;7.646;2022-09-17T10:07:41;7.83;;;1.30;;
5831;SDS011;50943;51.448;7.646;2022-09-17T10:10:08;4.60;;;1.23;;
5831;SDS011;50943;51.448;7.646;2022-09-17T10:12:36;4.43;;;1.10;;
5831;SDS011;50943;51.448;7.646;2022-09-17T10:15:20;3.40;;;1.00;;
5831;SDS011;50943;51.448;7.646;2022-09-17T10:17:48;15.80;;;1.47;;
5831;SDS011;50943;51.448;7.646;2022-09-17T10:20:15;8.33;;;1.27;;
5831;SDS011;50943;51.448;7.646;2022-09-17T10:22:42;9.50;;;1.67;;
5831;SDS011;50943;51.448;7.646;2022-09-17T10:25:27;3.23;;;1.03;;
5831;SDS011;50943;51.448;7.646;2022-09-17T10:27:55;3.97;;;1.00;;
5831;SDS011;50943;51.448;7.646;2022-09-17T10:30:22;4.00;;;1.10;;
5831;SDS011;50943;51.448;7.646;2022-09-17T10:35:31;3.47;;;1.10;;
5831;SDS011;50943;51.448;7.646;2022-09-17T10:37:58;6.60;;;1.00;;
5831;SDS011;50943;51.448;7.646;2022-09-17T10:40:26;7.50;;;0.90;;
5831;SDS011;50943;51.448;7.646;2022-09-17T10:43:16;7.23;;;1.23;;
5831;SDS011;50943;51.448;7.646;2022-09-17T10:45:43;6.40;;;1.30;;
5831;SDS011;50943;51.448;7.646;2022-09-17T10:48:12;5.77;;;1.40;;
5831;SDS011;50943;51.448;7.646;2022-09-17T10:50:40;4.73;;;1.20;;
5831;SDS011;50943;51.448;7.646;2022-09-17T10:53:14;5.00;;;0.90;;
5831;SDS011;50943;51.448;7.646;2022-09-17T10:55:41;4.50;;;1.00;;
5831;SDS011;50943;51.448;7.646;2022-09-17T10:58:10;6.13;;;1.00;;
5831;SDS011;50943;51.448;7.646;2022-09-17T11:00:43;3.90;;;1.20;;
5831;SDS011;50943;51.448;7.646;2022-09-17T11:03:19;4.27;;;0.93;;
5831;SDS011;50943;51.448;7.646;2022-09-17T11:05:57;4.40;;;1.00;;
5831;SDS011;50943;51.448;7.646;2022-09-17T11:08:28;4.57;;;0.93;;
5831;SDS011;50943;51.448;7.646;2022-09-17T11:11:00;2.43;;;1.03;;
5831;SDS011;50943;51.448;7.646;2022-09-17T11:13:30;3.63;;;0.80;;
5831;SDS011;50943;51.448;7.646;2022-09-17T11:16:06;16.83;;;1.57;;
5831;SDS011;50943;51.448;7.646;2022-09-17T11:18:35;5.27;;;1.90;;
5831;SDS011;50943;51.448;7.646;2022-09-17T11:21:08;6.00;;;1.20;;
5831;SDS011;50943;51.448;7.646;2022-09-17T11:23:47;4.53;;;0.87;;
5831;SDS011;50943;51.448;7.646;2022-09-17T11:26:19;5.87;;;1.20;;
5831;SDS011;50943;51.448;7.646;2022-09-17T11:28:52;1.30;;;0.80;;
5831;SDS011;50943;51.448;7.646;2022-09-17T11:31:23;5.97;;;1.00;;
5831;SDS011;50943;51.448;7.646;2022-09-17T11:33:59;4.30;;;1.00;;
5831;SDS011;50943;51.448;7.646;2022-09-17T11:36:30;4.23;;;0.90;;
5831;SDS011;50943;51.448;7.646;2022-09-17T11:38:59;4.67;;;0.93;;
5831;SDS011;50943;51.448;7.646;2022-09-17T11:41:34;2.67;;;0.90;;
5831;SDS011;50943;51.448;7.646;2022-09-17T11:44:04;2.40;;;0.80;;
5831;SDS011;50943;51.448;7.646;2022-09-17T11:46:36;5.10;;;1.00;;
5831;SDS011;50943;51.448;7.646;2022-09-17T11:49:08;3.83;;;0.87;;
5831;SDS011;50943;51.448;7.646;2022-09-17T11:51:38;3.70;;;0.90;;
5831;SDS011;50943;51.448;7.646;2022-09-17T11:54:06;3.37;;;0.70;;
5831;SDS011;50943;51.448;7.646;2022-09-17T11:56:34;2.17;;;0.90;;
5831;SDS011;50943;51.448;7.646;2022-09-17T11:59:02;5.57;;;0.90;;
5831;SDS011;50943;51.448;7.646;2022-09-17T12:01:30;2.70;;;1.13;;
5831;SDS011;50943;51.448;7.646;2022-09-17T12:04:04;1.93;;;0.63;;
5831;SDS011;50943;51.448;7.646;2022-09-17T12:06:37;1.90;;;0.67;;
5831;SDS011;50943;51.448;7.646;2022-09-17T12:09:08;1.50;;;0.70;;
5831;SDS011;50943;51.448;7.646;2022-09-17T12:11:38;2.23;;;0.67;;
5831;SDS011;50943;51.448;7.646;2022-09-17T12:14:08;1.53;;;0.73;;
5831;SDS011;50943;51.448;7.646;2022-09-17T12:16:39;1.70;;;0.80;;
5831;SDS011;50943;51.448;7.646;2022-09-17T12:19:10;2.70;;;0.80;;
5831;SDS011;50943;51.448;7.646;2022-09-17T12:21:38;4.00;;;1.00;;
5831;SDS011;50943;51.448;7.646;2022-09-17T12:24:08;3.73;;;0.93;;
5831;SDS011;50943;51.448;7.646;2022-09-17T12:29:22;4.53;;;1.10;;
5831;SDS011;50943;51.448;7.646;2022-09-17T12:31:53;4.50;;;1.10;;
5831;SDS011;50943;51.448;7.646;2022-09-17T12:34:27;3.73;;;0.87;;
5831;SDS011;50943;51.448;7.646;2022-09-17T12:36:59;2.33;;;0.80;;
5831;SDS011;50943;51.448;7.646;2022-09-17T12:39:36;1.97;;;0.80;;
5831;SDS011;50943;51.448;7.646;2022-09-17T12:42:07;2.23;;;1.00;;
5831;SDS011;50943;51.448;7.646;2022-09-17T12:44:55;2.03;;;0.90;;
5831;SDS011;50943;51.448;7.646;2022-09-17T12:47:33;3.97;;;1.03;;
5831;SDS011;50943;51.448;7.646;2022-09-17T12:50:12;2.50;;;0.90;;
5831;SDS011;50943;51.448;7.646;2022-09-17T12:52:43;6.20;;;1.20;;
5831;SDS011;50943;51.448;7.646;2022-09-17T12:55:22;2.20;;;0.73;;
5831;SDS011;50943;51.448;7.646;2022-09-17T12:57:53;4.37;;;0.90;;
5831;SDS011;50943;51.448;7.646;2022-09-17T13:00:21;3.43;;;1.13;;
5831;SDS011;50943;51.448;7.646;2022-09-17T13:02:49;5.57;;;1.10;;
5831;SDS011;50943;51.448;7.646;2022-09-17T13:05:29;3.03;;;1.00;;
5831;SDS011;50943;51.448;7.646;2022-09-17T13:10:53;3.37;;;1.07;;
5831;SDS011;50943;51.448;7.646;2022-09-17T13:13:29;2.30;;;0.80;;
5831;SDS011;50943;51.448;7.646;2022-09-17T13:15:59;4.33;;;1.10;;
5831;SDS011;50943;51.448;7.646;2022-09-17T13:18:30;1.57;;;0.67;;
5831;SDS011;50943;51.448;7.646;2022-09-17T13:21:02;1.40;;;0.63;;
5831;SDS011;50943;51.448;7.646;2022-09-17T13:23:31;4.07;;;0.80;;
5831;SDS011;50943;51.448;7.646;2022-09-17T13:25:58;4.70;;;0.87;;
5831;SDS011;50943;51.448;7.646;2022-09-17T13:28:35;1.70;;;0.77;;
5831;SDS011;50943;51.448;7.646;2022-09-17T13:31:01;3.23;;;0.70;;
5831;SDS011;50943;51.448;7.646;2022-09-17T13:33:48;4.80;;;1.33;;
5831;SDS011;50943;51.448;7.646;2022-09-17T13:36:35;1.80;;;0.80;;
5831;SDS011;50943;51.448;7.646;2022-09-17T13:39:03;2.80;;;1.00;;
5831;SDS011;50943;51.448;7.646;2022-09-17T13:41:31;5.67;;;0.90;;
5831;SDS011;50943;51.448;7.646;2022-09-17T13:43:58;2.63;;;0.77;;
5831;SDS011;50943;51.448;7.646;2022-09-17T13:46:29;4.37;;;1.20;;
5831;SDS011;50943;51.448;7.646;2022-09-17T13:48:58;1.93;;;0.90;;
5831;SDS011;50943;51.448;7.646;2022-09-17T13:51:45;2.10;;;0.77;;
5831;SDS011;50943;51.448;7.646;2022-09-17T13:54:13;3.37;;;1.03;;
5831;SDS011;50943;51.448;7.646;2022-09-17T13:56:41;1.60;;;0.80;;
5831;SDS011;50943;51.448;7.646;2022-09-17T13:59:10;2.03;;;0.80;;
5831;SDS011;50943;51.448;7.646;2022-09-17T14:01:54;3.87;;;0.80;;
5831;SDS011;50943;51.448;7.646;2022-09-17T14:04:31;2.60;;;1.10;;
5831;SDS011;50943;51.448;7.646;2022-09-17T14:06:59;4.37;;;1.20;;
5831;SDS011;50943;51.448;7.646;2022-09-17T14:09:28;5.53;;;1.10;;
5831;SDS011;50943;51.448;7.646;2022-09-17T14:11:56;6.73;;;0.93;;
5831;SDS011;50943;51.448;7.646;2022-09-17T14:14:35;3.80;;;0.97;;
5831;SDS011;50943;51.448;7.646;2022-09-17T14:17:05;3.40;;;1.20;;
5831;SDS011;50943;51.448;7.646;2022-09-17T14:19:33;5.80;;;1.53;;
5831;SDS011;50943;51.448;7.646;2022-09-17T14:22:13;5.13;;;1.30;;
5831;SDS011;50943;51.448;7.646;2022-09-17T14:24:44;11.93;;;1.63;;
5831;SDS011;50943;51.448;7.646;2022-09-17T14:27:14;4.20;;;1.43;;
5831;SDS011;50943;51.448;7.646;2022-09-17T14:29:48;3.50;;;1.00;;
5831;SDS011;50943;51.448;7.646;2022-09-17T14:32:17;2.97;;;1.10;;
5831;SDS011;50943;51.448;7.646;2022-09-17T14:34:45;2.50;;;0.90;;
5831;SDS011;50943;51.448;7.646;2022-09-17T14:37:13;3.37;;;1.03;;
5831;SDS011;50943;51.448;7.646;2022-09-17T14:39:41;2.23;;;1.10;;
5831;SDS011;50943;51.448;7.646;2022-09-17T14:42:11;6.40;;;1.30;;
5831;SDS011;50943;51.448;7.646;2022-09-17T14:44:43;5.00;;;1.00;;
5831;SDS011;50943;51.448;7.646;2022-09-17T14:47:13;2.83;;;1.03;;
5831;SDS011;50943;51.448;7.646;2022-09-17T14:49:41;5.00;;;1.10;;
5831;SDS011;50943;51.448;7.646;2022-09-17T14:52:18;2.93;;;1.00;;
5831;SDS011;50943;51.448;7.646;2022-09-17T14:54:48;2.73;;;1.20;;
5831;SDS011;50943;51.448;7.646;2022-09-17T14:57:16;8.80;;;1.40;;
5831;SDS011;50943;51.448;7.646;2022-09-17T14:59:46;4.20;;;1.27;;
5831;SDS011;50943;51.448;7.646;2022-09-17T15:02:30;3.53;;;1.40;;
5831;SDS011;50943;51.448;7.646;2022-09-17T15:04:58;2.27;;;1.03;;
5831;SDS011;50943;51.448;7.646;2022-09-17T15:07:26;4.17;;;1.23;;
5831;SDS011;50943;51.448;7.646;2022-09-17T15:09:52;5.63;;;1.10;;
5831;SDS011;50943;51.448;7.646;2022-09-17T15:12:21;4.87;;;1.00;;
5831;SDS011;50943;51.448;7.646;2022-09-17T15:14:49;4.50;;;0.87;;
5831;SDS011;50943;51.448;7.646;2022-09-17T15:17:16;4.47;;;1.53;;
5831;SDS011;50943;51.448;7.646;2022-09-17T15:19:44;3.80;;;1.00;;
5831;SDS011;50943;51.448;7.646;2022-09-17T15:22:13;6.07;;;0.90;;